Alamota, Kansas
Current Conditions -  °F | °C
As of 7:54 PM on Saturday 25 Oct 2014 (Local Time) from KGCK Reporting Station
Clear Clear  
Wind Chill: 70°   Ceiling: Unl
Heat Index: 70°   Visibility: 10mi
Dew Point: 46°   Wind: 12mph
Humidity: 42%   Direction: 150°SSE
Pressure: 29.96"   Gusts: NA
Location:  38.4812°N, 100.393°W
Report Text: KGCK 260054Z 15010KT 10SM CLR 21/08 A2996 RMK AO2 SLP129 T02110078
Loading
Personal Weather Stations






























Interactive Weather Map
Tropical Storm Tracking
New forecast layout! Learn more

10-Day Weather Forecast

Advertisements
Track Severe Weather on mobile